createdAt,value
2022-10-02T00:02:37.576Z,70.34
2022-10-02T00:05:32.753Z,70.42
2022-10-02T00:08:38.512Z,70.53
2022-10-02T00:11:17.506Z,70.58
2022-10-02T00:13:56.737Z,70.62
2022-10-02T00:16:29.494Z,70.82
2022-10-02T00:18:58.112Z,70.69
2022-10-02T00:21:45.914Z,70.78
2022-10-02T00:24:21.133Z,70.85
2022-10-02T00:27:28.210Z,70.82
2022-10-02T00:30:00.293Z,70.96
2022-10-02T00:32:37.335Z,70.86
2022-10-02T00:35:37.755Z,70.89
2022-10-02T00:38:44.318Z,70.87
2022-10-02T00:41:31.415Z,71.15
2022-10-02T00:44:21.919Z,71.04
2022-10-02T00:47:04.647Z,71.05
2022-10-02T00:49:54.987Z,71.06
2022-10-02T00:53:00.873Z,71.19
2022-10-02T00:55:42.827Z,71.11
2022-10-02T00:58:26.072Z,71.25
2022-10-02T01:01:10.981Z,71.28
2022-10-02T01:03:56.747Z,71.27
2022-10-02T01:06:29.000Z,71.41
2022-10-02T01:08:58.276Z,71.33
2022-10-02T01:11:40.609Z,71.26
2022-10-02T01:14:10.308Z,71.30
2022-10-02T01:16:42.453Z,71.45
2022-10-02T01:19:26.384Z,71.50
2022-10-02T01:22:05.376Z,71.42
2022-10-02T01:24:48.595Z,71.72
2022-10-02T01:27:18.087Z,71.65
2022-10-02T01:29:52.657Z,71.63
2022-10-02T01:32:26.614Z,71.71
2022-10-02T01:34:56.915Z,71.67
2022-10-02T01:37:31.146Z,71.69
2022-10-02T01:40:07.139Z,71.75
2022-10-02T01:42:37.260Z,71.84
2022-10-02T01:45:09.368Z,71.70
2022-10-02T01:47:49.096Z,71.87
2022-10-02T01:50:32.046Z,71.81
2022-10-02T01:53:12.710Z,71.88
2022-10-02T01:56:01.566Z,72.01
2022-10-02T01:58:48.797Z,72.02
2022-10-02T02:01:27.488Z,71.90
2022-10-02T02:04:13.818Z,71.88
2022-10-02T02:06:54.526Z,71.90
2022-10-02T02:09:38.566Z,71.88
2022-10-02T02:12:15.008Z,71.98
2022-10-02T02:14:52.128Z,71.96
2022-10-02T02:17:26.929Z,72.05
2022-10-02T02:20:14.177Z,72.00
2022-10-02T02:22:47.776Z,72.22
2022-10-02T02:25:30.632Z,72.25
2022-10-02T02:28:04.429Z,72.24
2022-10-02T02:30:37.079Z,72.20
2022-10-02T02:33:11.785Z,72.23
2022-10-02T02:35:55.374Z,72.35
2022-10-02T02:38:30.159Z,72.35
2022-10-02T02:41:05.279Z,72.25
2022-10-02T02:43:41.104Z,72.25
2022-10-02T02:46:28.362Z,72.26
2022-10-02T02:49:09.860Z,72.35
2022-10-02T02:51:42.936Z,72.42
2022-10-02T02:54:24.598Z,72.34
2022-10-02T02:56:55.416Z,72.39
2022-10-02T02:59:28.730Z,72.35
2022-10-02T03:02:04.338Z,72.43
2022-10-02T03:04:32.872Z,72.37
2022-10-02T03:07:05.865Z,72.29
2022-10-02T03:09:34.947Z,72.48
2022-10-02T03:12:20.520Z,72.37
2022-10-02T03:14:56.046Z,72.51
2022-10-02T03:18:02.836Z,72.35
2022-10-02T03:20:48.822Z,72.48
2022-10-02T03:23:45.977Z,72.49
2022-10-02T03:26:20.086Z,72.49
2022-10-02T03:28:59.061Z,72.51
2022-10-02T03:31:31.069Z,72.60
2022-10-02T03:34:02.777Z,72.45
2022-10-02T03:36:32.171Z,72.48
2022-10-02T03:39:25.184Z,72.53
2022-10-02T03:41:54.773Z,72.52
2022-10-02T03:44:23.771Z,72.66
2022-10-02T03:46:52.598Z,72.53
2022-10-02T03:49:29.408Z,72.58
2022-10-02T03:51:58.564Z,72.58
2022-10-02T03:54:34.724Z,72.60
2022-10-02T03:57:07.673Z,72.61
2022-10-02T03:59:45.758Z,72.70
2022-10-02T04:02:23.887Z,72.60
2022-10-02T04:05:05.151Z,72.72
2022-10-02T04:07:39.424Z,72.85
2022-10-02T04:10:11.555Z,72.82
2022-10-02T04:12:47.875Z,72.75
2022-10-02T04:15:31.502Z,72.76
2022-10-02T04:18:10.918Z,72.83
2022-10-02T04:20:52.831Z,72.67
2022-10-02T04:23:32.473Z,72.93
2022-10-02T04:26:07.979Z,73.06
2022-10-02T04:28:48.458Z,72.90
2022-10-02T04:31:17.856Z,72.94
2022-10-02T04:33:52.476Z,73.03
2022-10-02T04:36:39.995Z,72.90
2022-10-02T04:39:31.700Z,72.85
2022-10-02T04:42:17.035Z,72.92
2022-10-02T04:45:26.917Z,72.84
2022-10-02T04:48:34.241Z,73.00
2022-10-02T04:51:12.818Z,72.87
2022-10-02T04:54:05.561Z,72.97
2022-10-02T04:57:02.081Z,73.04
2022-10-02T04:59:36.122Z,73.10
2022-10-02T05:02:26.456Z,73.08
2022-10-02T05:05:22.856Z,73.15
2022-10-02T05:08:18.958Z,73.10
2022-10-02T05:11:31.626Z,73.01
2022-10-02T05:14:11.386Z,73.18
2022-10-02T05:17:04.158Z,73.08
2022-10-02T05:20:24.833Z,73.10
2022-10-02T05:23:01.565Z,73.05
2022-10-02T05:25:59.669Z,73.13
2022-10-02T05:28:54.045Z,73.19
2022-10-02T05:31:53.061Z,73.29
2022-10-02T05:34:46.030Z,73.20
2022-10-02T05:37:27.696Z,73.11
2022-10-02T05:40:25.684Z,73.14
2022-10-02T05:43:33.032Z,73.24
2022-10-02T05:46:21.977Z,73.19
2022-10-02T05:49:03.364Z,73.17
2022-10-02T05:51:55.922Z,73.23
2022-10-02T05:54:36.430Z,73.16
2022-10-02T05:57:17.341Z,73.23
2022-10-02T06:00:02.917Z,73.28
2022-10-02T06:03:06.343Z,73.25
2022-10-02T06:05:47.990Z,73.37
2022-10-02T06:08:22.385Z,73.59
2022-10-02T06:11:01.362Z,73.40
2022-10-02T06:13:38.155Z,72.68
2022-10-02T06:16:33.038Z,72.20
2022-10-02T06:19:18.618Z,72.22
2022-10-02T06:21:59.954Z,72.09
2022-10-02T06:24:33.699Z,71.19
2022-10-02T06:27:13.545Z,71.02
2022-10-02T06:29:51.569Z,70.80
2022-10-02T06:32:37.501Z,71.09
2022-10-02T06:35:16.016Z,71.48
2022-10-02T06:37:56.964Z,70.46
2022-10-02T06:40:44.061Z,70.09
2022-10-02T06:43:37.113Z,68.54
2022-10-02T06:46:23.436Z,68.43
2022-10-02T06:49:00.260Z,68.44
2022-10-02T06:51:44.688Z,69.13
2022-10-02T06:54:23.898Z,67.98
2022-10-02T06:57:04.261Z,68.52
2022-10-02T06:59:46.495Z,67.12
2022-10-02T07:02:39.352Z,67.57
2022-10-02T07:05:16.706Z,67.99
2022-10-02T07:08:05.156Z,67.24
2022-10-02T07:10:40.345Z,67.48
2022-10-02T07:13:36.072Z,67.15
2022-10-02T07:16:42.870Z,66.89
2022-10-02T07:19:47.847Z,66.89
2022-10-02T07:22:50.653Z,66.22
2022-10-02T07:25:31.813Z,66.08
2022-10-02T07:28:25.482Z,65.77
2022-10-02T07:31:08.673Z,65.28
2022-10-02T07:33:43.176Z,65.23
2022-10-02T07:36:33.650Z,65.01
2022-10-02T07:39:03.100Z,64.04
2022-10-02T07:42:01.061Z,64.17
2022-10-02T07:45:01.592Z,64.31
2022-10-02T07:47:46.628Z,64.03
2022-10-02T07:50:45.720Z,63.10
2022-10-02T07:53:24.633Z,62.92
2022-10-02T07:55:56.415Z,63.07
2022-10-02T07:58:51.538Z,63.06
2022-10-02T08:01:33.603Z,62.92
2022-10-02T08:04:07.532Z,62.79
2022-10-02T08:06:37.415Z,62.49
2022-10-02T08:09:21.378Z,62.38
2022-10-02T08:12:13.301Z,62.50
2022-10-02T08:14:45.869Z,62.64
2022-10-02T08:17:40.017Z,62.70
2022-10-02T08:20:29.467Z,61.90
2022-10-02T08:23:07.433Z,62.21
2022-10-02T08:26:11.323Z,62.08
2022-10-02T08:29:08.931Z,62.04
2022-10-02T08:31:38.345Z,61.84
2022-10-02T08:34:18.179Z,61.71
2022-10-02T08:37:05.831Z,61.76
2022-10-02T08:40:25.753Z,61.64
2022-10-02T08:43:00.431Z,61.88
2022-10-02T08:45:56.843Z,62.15
2022-10-02T08:48:39.982Z,62.14
2022-10-02T08:51:40.201Z,62.06
2022-10-02T08:54:43.414Z,61.73
2022-10-02T08:57:55.532Z,62.08
2022-10-02T09:00:56.695Z,62.09
2022-10-02T09:03:38.136Z,61.75
2022-10-02T09:06:21.849Z,61.37
2022-10-02T09:09:11.007Z,61.15
2022-10-02T09:12:02.233Z,60.93
2022-10-02T09:14:54.579Z,60.89
2022-10-02T09:17:47.533Z,60.80
2022-10-02T09:20:35.271Z,60.83
2022-10-02T09:23:42.518Z,60.56
2022-10-02T09:26:13.981Z,60.60
2022-10-02T09:29:09.774Z,60.54
2022-10-02T09:32:16.173Z,60.10
2022-10-02T09:35:03.243Z,59.58
2022-10-02T09:37:59.785Z,59.61
2022-10-02T09:40:49.357Z,59.44
2022-10-02T09:43:44.382Z,59.50
2022-10-02T09:46:36.423Z,59.40
2022-10-02T09:49:17.216Z,58.16
2022-10-02T09:52:00.819Z,58.38
2022-10-02T09:54:50.257Z,58.22
2022-10-02T09:57:32.353Z,58.05
2022-10-02T10:00:18.883Z,57.84
2022-10-02T10:03:23.468Z,57.33
2022-10-02T10:06:16.279Z,57.32
2022-10-02T10:09:20.036Z,57.22
2022-10-02T10:12:15.827Z,56.98
2022-10-02T10:15:05.264Z,57.01
2022-10-02T10:18:14.924Z,57.04
2022-10-02T10:21:21.042Z,56.66
2022-10-02T10:24:00.977Z,56.56
2022-10-02T10:26:39.309Z,55.85
2022-10-02T10:29:24.606Z,56.18
2022-10-02T10:32:05.693Z,55.88
2022-10-02T10:34:56.300Z,55.89
2022-10-02T10:38:02.305Z,55.65
2022-10-02T10:41:15.837Z,55.55
2022-10-02T10:44:22.906Z,55.74
2022-10-02T10:47:27.872Z,55.71
2022-10-02T10:50:21.998Z,55.59
2022-10-02T10:53:31.888Z,55.54
2022-10-02T10:56:37.902Z,55.62
2022-10-02T10:59:25.473Z,55.57
2022-10-02T11:02:14.830Z,55.15
2022-10-02T11:05:11.305Z,55.16
2022-10-02T11:07:59.139Z,54.98
2022-10-02T11:10:40.343Z,54.92
2022-10-02T11:13:44.723Z,54.91
2022-10-02T11:16:55.469Z,54.78
2022-10-02T11:19:36.973Z,54.95
2022-10-02T11:22:20.584Z,54.64
2022-10-02T11:24:57.203Z,54.55
2022-10-02T11:28:22.613Z,54.54
2022-10-02T11:31:17.853Z,54.67
2022-10-02T11:34:01.938Z,54.67
2022-10-02T11:36:58.018Z,54.21
2022-10-02T11:39:53.112Z,53.93
2022-10-02T11:42:42.639Z,54.34
2022-10-02T11:45:33.341Z,54.15
2022-10-02T11:48:33.732Z,54.11
2022-10-02T11:51:31.233Z,53.89
2022-10-02T11:54:16.692Z,53.79
2022-10-02T11:57:02.059Z,53.73
2022-10-02T11:59:48.995Z,53.87
2022-10-02T12:02:23.605Z,53.84
2022-10-02T12:05:10.922Z,53.84
2022-10-02T12:07:44.552Z,53.71
2022-10-02T12:10:40.543Z,53.76
2022-10-02T12:13:21.385Z,53.62
2022-10-02T12:16:08.890Z,53.45
2022-10-02T12:19:05.892Z,53.58
2022-10-02T12:22:16.276Z,53.84
2022-10-02T12:25:09.211Z,53.60
2022-10-02T12:28:07.471Z,53.78
2022-10-02T12:31:01.601Z,54.36
2022-10-02T12:33:56.410Z,54.90
2022-10-02T12:36:47.124Z,55.63
2022-10-02T12:39:37.717Z,55.71
2022-10-02T12:42:12.366Z,55.69
2022-10-02T12:44:54.063Z,56.15
2022-10-02T12:47:29.418Z,56.33
2022-10-02T12:50:22.427Z,56.55
2022-10-02T12:53:30.006Z,56.70
2022-10-02T12:56:28.448Z,57.60
2022-10-02T12:59:20.385Z,57.59
2022-10-02T13:02:11.350Z,57.83
2022-10-02T13:05:14.939Z,58.08
2022-10-02T13:08:10.227Z,58.28
2022-10-02T13:10:41.898Z,58.18
2022-10-02T13:13:19.526Z,58.01
2022-10-02T13:15:57.239Z,58.39
2022-10-02T13:18:43.958Z,58.31
2022-10-02T13:21:16.791Z,58.22
2022-10-02T13:23:45.623Z,58.37
2022-10-02T13:26:32.778Z,58.22
2022-10-02T13:29:16.487Z,58.34
2022-10-02T13:32:23.756Z,58.29
2022-10-02T13:35:06.246Z,58.56
2022-10-02T13:37:43.096Z,58.67
2022-10-02T13:40:29.316Z,58.86
2022-10-02T13:43:32.203Z,58.86
2022-10-02T13:46:30.109Z,58.84
2022-10-02T13:49:21.290Z,58.78
2022-10-02T13:52:08.174Z,58.92
2022-10-02T13:54:37.742Z,58.86
2022-10-02T13:57:27.719Z,58.88
2022-10-02T14:00:37.725Z,58.93
2022-10-02T14:03:22.148Z,59.03
2022-10-02T14:06:25.357Z,59.07
2022-10-02T14:09:21.975Z,59.07
2022-10-02T14:12:03.107Z,59.06
2022-10-02T14:14:56.818Z,59.16
2022-10-02T14:17:39.081Z,59.17
2022-10-02T14:20:26.750Z,59.20
2022-10-02T14:23:07.642Z,59.26
2022-10-02T14:26:04.541Z,59.22
2022-10-02T14:28:57.598Z,59.21
2022-10-02T14:31:38.222Z,59.22
2022-10-02T14:34:47.176Z,59.21
2022-10-02T14:37:30.987Z,59.18
2022-10-02T14:40:06.391Z,59.24
2022-10-02T14:42:46.989Z,59.30
2022-10-02T14:45:39.785Z,59.33
2022-10-02T14:48:14.216Z,59.34
2022-10-02T14:51:01.069Z,59.26
2022-10-02T14:53:32.906Z,59.23
2022-10-02T14:56:32.901Z,59.31
2022-10-02T14:59:11.028Z,59.31
2022-10-02T15:01:51.893Z,59.35
2022-10-02T15:04:48.188Z,59.56
2022-10-02T15:07:22.311Z,60.32
2022-10-02T15:10:18.440Z,60.22
2022-10-02T15:13:08.065Z,61.16
2022-10-02T15:16:10.898Z,60.92
2022-10-02T15:18:58.429Z,60.67
2022-10-02T15:21:32.848Z,60.79
2022-10-02T15:24:26.450Z,60.91
2022-10-02T15:27:11.875Z,60.87
2022-10-02T15:30:06.543Z,60.76
2022-10-02T15:32:41.208Z,60.87
2022-10-02T15:35:23.851Z,61.08
2022-10-02T15:38:22.156Z,61.30
2022-10-02T15:41:29.977Z,61.61
2022-10-02T15:43:59.949Z,61.89
2022-10-02T15:46:52.565Z,62.43
2022-10-02T15:49:24.779Z,63.35
2022-10-02T15:51:56.532Z,63.51
2022-10-02T15:55:10.549Z,63.48
2022-10-02T15:58:07.678Z,64.02
2022-10-02T16:01:02.407Z,63.57
2022-10-02T16:03:40.406Z,63.78
2022-10-02T16:06:18.232Z,63.71
2022-10-02T16:08:59.345Z,63.36
2022-10-02T16:11:36.859Z,63.68
2022-10-02T16:14:19.321Z,63.69
2022-10-02T16:17:16.357Z,63.83
2022-10-02T16:20:14.670Z,64.40
2022-10-02T16:23:07.965Z,64.21
2022-10-02T16:25:56.939Z,64.33
2022-10-02T16:28:47.339Z,64.18
2022-10-02T16:31:40.290Z,64.46
2022-10-02T16:34:42.315Z,64.61
2022-10-02T16:37:36.582Z,64.83
2022-10-02T16:40:23.445Z,64.97
2022-10-02T16:43:24.535Z,64.95
2022-10-02T16:46:00.484Z,65.00
2022-10-02T16:49:06.601Z,65.05
2022-10-02T16:51:58.306Z,65.51
2022-10-02T16:54:58.368Z,65.34
2022-10-02T16:57:36.127Z,65.41
2022-10-02T17:00:23.183Z,65.26
2022-10-02T17:03:02.369Z,65.13
2022-10-02T17:06:11.787Z,65.47
2022-10-02T17:09:36.791Z,65.76
2022-10-02T17:13:15.438Z,65.79
2022-10-02T17:16:28.026Z,65.50
2022-10-02T17:19:40.744Z,65.66
2022-10-02T17:22:50.460Z,66.18
2022-10-02T17:26:25.616Z,66.37
2022-10-02T17:29:39.091Z,66.55
2022-10-02T17:32:48.282Z,66.47
2022-10-02T17:35:59.399Z,66.56
2022-10-02T17:39:23.252Z,66.53
2022-10-02T17:41:58.208Z,66.62
2022-10-02T17:45:15.506Z,66.64
2022-10-02T17:47:58.112Z,66.63
2022-10-02T17:50:43.187Z,66.69
2022-10-02T17:54:19.987Z,66.79
2022-10-02T17:57:23.163Z,66.86
2022-10-02T18:00:17.146Z,67.08
2022-10-02T18:02:56.261Z,67.16
2022-10-02T18:06:12.469Z,67.38
2022-10-02T18:09:02.543Z,67.31
2022-10-02T18:11:40.239Z,67.32
2022-10-02T18:14:35.373Z,67.35
2022-10-02T18:17:48.226Z,67.40
2022-10-02T18:20:39.561Z,67.54
2022-10-02T18:23:50.485Z,67.33
2022-10-02T18:26:41.960Z,67.61
2022-10-02T18:29:26.515Z,67.80
2022-10-02T18:32:46.179Z,67.46
2022-10-02T18:35:28.913Z,67.56
2022-10-02T18:38:18.614Z,67.70
2022-10-02T18:41:09.230Z,67.78
2022-10-02T18:43:47.997Z,67.75
2022-10-02T18:47:00.762Z,67.95
2022-10-02T18:49:43.572Z,68.01
2022-10-02T18:52:48.149Z,68.13
2022-10-02T18:55:39.248Z,68.10
2022-10-02T18:58:14.650Z,68.32
2022-10-02T19:01:08.300Z,68.23
2022-10-02T19:03:52.577Z,68.42
2022-10-02T19:06:48.239Z,68.48
2022-10-02T19:09:23.611Z,68.54
2022-10-02T19:11:58.403Z,68.61
2022-10-02T19:14:34.776Z,68.59
2022-10-02T19:17:11.345Z,68.57
2022-10-02T19:19:42.769Z,68.81
2022-10-02T19:22:26.664Z,68.74
2022-10-02T19:25:07.305Z,68.84
2022-10-02T19:27:38.060Z,68.61
2022-10-02T19:30:29.949Z,68.82
2022-10-02T19:33:07.833Z,68.81
2022-10-02T19:35:43.952Z,68.80
2022-10-02T19:39:10.939Z,68.93
2022-10-02T19:41:44.081Z,69.04
2022-10-02T19:44:33.367Z,69.07
2022-10-02T19:47:11.572Z,69.22
2022-10-02T19:49:42.865Z,69.40
2022-10-02T19:52:49.000Z,69.21
2022-10-02T19:55:25.500Z,69.46
2022-10-02T19:58:00.923Z,69.53
2022-10-02T20:00:30.615Z,69.54
2022-10-02T20:03:02.886Z,69.49
2022-10-02T20:05:35.989Z,69.53
2022-10-02T20:08:17.210Z,69.44
2022-10-02T20:11:09.598Z,69.64
2022-10-02T20:13:45.888Z,69.71
2022-10-02T20:16:38.846Z,69.59
2022-10-02T20:19:16.622Z,69.77
2022-10-02T20:21:50.708Z,69.83
2022-10-02T20:24:30.824Z,69.96
2022-10-02T20:27:07.724Z,70.09
2022-10-02T20:29:47.130Z,70.09
2022-10-02T20:32:39.500Z,70.14
2022-10-02T20:35:15.006Z,69.99
2022-10-02T20:37:49.073Z,70.05
2022-10-02T20:40:28.148Z,70.01
2022-10-02T20:43:13.960Z,70.06
2022-10-02T20:45:49.003Z,70.12
2022-10-02T20:49:03.553Z,70.12
2022-10-02T20:51:43.988Z,70.32
2022-10-02T20:54:23.888Z,70.29
2022-10-02T20:57:16.458Z,70.26
2022-10-02T21:00:03.669Z,70.34
2022-10-02T21:02:48.651Z,70.37
2022-10-02T21:06:04.542Z,70.41
2022-10-02T21:09:11.025Z,70.64
2022-10-02T21:11:56.358Z,70.49
2022-10-02T21:14:54.767Z,70.51
2022-10-02T21:17:44.680Z,70.69
2022-10-02T21:20:50.774Z,70.81
2022-10-02T21:24:07.582Z,70.70
2022-10-02T21:26:58.076Z,70.89
2022-10-02T21:29:37.328Z,70.72
2022-10-02T21:32:43.636Z,70.71
2022-10-02T21:35:31.760Z,70.87
2022-10-02T21:38:44.755Z,70.96
2022-10-02T21:41:35.170Z,71.03
2022-10-02T21:44:41.795Z,71.08
2022-10-02T21:47:26.008Z,71.03
2022-10-02T21:50:04.116Z,71.12
2022-10-02T21:52:53.730Z,71.04
2022-10-02T21:55:46.373Z,71.15
2022-10-02T21:58:33.639Z,71.24
2022-10-02T22:01:22.615Z,71.14
2022-10-02T22:04:32.596Z,71.36
2022-10-02T22:07:15.914Z,71.42
2022-10-02T22:10:13.150Z,71.41
2022-10-02T22:13:11.953Z,71.26
2022-10-02T22:15:49.933Z,71.50
2022-10-02T22:18:39.932Z,71.45
2022-10-02T22:21:09.289Z,71.51
2022-10-02T22:23:40.252Z,71.57
2022-10-02T22:26:31.665Z,71.68
2022-10-02T22:29:17.787Z,71.83
2022-10-02T22:32:19.527Z,71.84
2022-10-02T22:35:23.822Z,71.92
2022-10-02T22:38:06.297Z,72.07
2022-10-02T22:40:48.637Z,72.02
2022-10-02T22:43:27.243Z,72.11
2022-10-02T22:46:03.059Z,72.03
2022-10-02T22:48:46.173Z,72.09
2022-10-02T22:51:59.875Z,72.19
2022-10-02T22:54:35.519Z,72.36
2022-10-02T22:57:25.785Z,72.18
2022-10-02T23:00:17.666Z,72.39
2022-10-02T23:02:50.770Z,72.48
2022-10-02T23:05:41.749Z,72.51
2022-10-02T23:08:34.482Z,72.64
2022-10-02T23:11:24.779Z,72.64
2022-10-02T23:14:06.324Z,72.75
2022-10-02T23:17:16.801Z,72.71
2022-10-02T23:19:49.094Z,72.68
2022-10-02T23:22:30.115Z,72.86
2022-10-02T23:25:20.111Z,72.82
2022-10-02T23:28:07.793Z,72.98
2022-10-02T23:30:51.343Z,73.06
2022-10-02T23:33:28.484Z,72.84
2022-10-02T23:36:13.935Z,72.77
2022-10-02T23:38:49.854Z,72.96
2022-10-02T23:41:38.181Z,72.95
2022-10-02T23:44:33.703Z,72.96
2022-10-02T23:47:08.460Z,73.22
2022-10-02T23:49:46.845Z,73.06
2022-10-02T23:52:46.482Z,73.21
2022-10-02T23:55:27.281Z,73.20
2022-10-02T23:58:13.166Z,73.21
